Pagina principale
METAR-TAF:

METAR-TAF

Aeroporti :

Schwäbisch Hall, Germania

latitudine: 49-07-06N, longitudine: 9-47-02E, altezza: 398 m

Osservazione

Il bollettino è stato emesso 33 minuti fa, alle 02:50 UTC
Vento 5 kt da sud-ovest, variando fra sud e ovest/sud-ovest
Temperature 4°C
Umidità 87%
Pressione 1024 hPa
Visibilità 10 km o più

METAR: EDTY 240250Z AUTO 22005KT 190V250 9999 // FEW019/// OVC030/// 04/02 Q1024

Ora: 04:23 (03:23 UTC)

Previsione

Il bollettino è stato emesso 10 ore e 23 minuti fa, alle 17:00 UTC
Previsione valida dal 23 alle 18 UTC al 24 alle 03 UTC
Vento 20 kt da ovest con raffiche fino a 35 kt
Visibilità 10 km o più
Cielo coperto ad un'altezza di 3000 ft
Temporaneamente
dal 23 alle 20 UTC al 24 alle 03 UTC
Visibilità: 3500 m
Nuvoloso ad un'altezza di 800 ft
pioggia
Evoluzione graduale
dal 23 alle 23 UTC al 24 alle 02 UTC
Vento 8 kt da nord

TAF: EDTY 231700Z 2318/2403 26020G35KT 9999 OVC030 TEMPO 2320/2403 3500 RA BKN008 BECMG 2323/2402 35008KT

Osservazioni e previsioni meteorologiche di più di 4000 aeroporti (messaggi METAR e TAF).

Le stazioni disponibili sono rappresentate dai dischi gialli e rossi sulla carta.

Puntare il mouse per vedere il nome della stazione.

Clicca sopra per visualizzare le osservazioni e previsioni meteorologiche.

Per cambiare la mappa : fare clic sui pulsanti verdi con una croce nera per ingrandire, il pulsante verde con un trattino per diminuire, o sulla freccia verde per le mappe adiacenti.


METAR-TAF: